createdAt,value
2022-12-09T00:02:40.879Z,93.74
2022-12-09T00:06:42.624Z,93.83
2022-12-09T00:10:44.438Z,93.50
2022-12-09T00:14:47.178Z,92.41
2022-12-09T00:18:48.918Z,93.00
2022-12-09T00:22:50.549Z,92.66
2022-12-09T00:26:52.132Z,92.81
2022-12-09T00:30:58.657Z,93.62
2022-12-09T00:35:00.396Z,93.95
2022-12-09T00:39:02.033Z,94.14
2022-12-09T00:43:03.433Z,93.73
2022-12-09T00:47:06.358Z,93.60
2022-12-09T00:51:09.289Z,91.80
2022-12-09T00:55:10.816Z,92.42
2022-12-09T00:59:12.504Z,93.29
2022-12-09T01:03:16.505Z,92.83
2022-12-09T01:07:18.320Z,92.17
2022-12-09T01:11:22.028Z,92.82
2022-12-09T01:15:23.543Z,93.54
2022-12-09T01:19:26.439Z,93.65
2022-12-09T01:23:27.864Z,93.57
2022-12-09T01:27:29.682Z,93.75
2022-12-09T01:31:31.348Z,93.88
2022-12-09T01:35:34.190Z,93.89
2022-12-09T01:39:35.593Z,92.59
2022-12-09T01:43:37.199Z,92.37
2022-12-09T01:47:38.624Z,93.21
2022-12-09T01:51:42.954Z,93.48
2022-12-09T01:55:45.077Z,92.35
2022-12-09T01:59:46.686Z,91.82
2022-12-09T02:03:48.550Z,92.45
2022-12-09T02:07:51.756Z,93.56
2022-12-09T02:12:00.719Z,92.81
2022-12-09T02:16:05.295Z,92.88
2022-12-09T02:20:12.214Z,93.53
2022-12-09T02:24:18.454Z,93.81
2022-12-09T02:28:39.164Z,94.32
2022-12-09T02:32:50.729Z,93.90
2022-12-09T02:36:57.916Z,93.38
2022-12-09T02:41:02.145Z,93.78
2022-12-09T02:45:05.778Z,94.03
2022-12-09T02:49:07.400Z,93.70
2022-12-09T02:53:12.065Z,94.11
2022-12-09T02:57:15.620Z,93.58
2022-12-09T03:01:21.419Z,94.29
2022-12-09T03:05:27.271Z,92.83
2022-12-09T03:09:33.394Z,93.62
2022-12-09T03:13:42.338Z,93.97
2022-12-09T03:17:45.336Z,93.74
2022-12-09T03:21:47.922Z,94.16
2022-12-09T03:25:52.128Z,93.96
2022-12-09T03:29:54.672Z,94.17
2022-12-09T03:33:58.555Z,93.88
2022-12-09T03:38:02.792Z,93.90
2022-12-09T03:42:08.532Z,93.38
2022-12-09T03:46:10.090Z,93.80
2022-12-09T03:50:12.557Z,93.95
2022-12-09T03:54:17.349Z,93.31
2022-12-09T03:58:20.457Z,92.39
2022-12-09T04:02:22.387Z,93.49
2022-12-09T04:06:24.320Z,93.63
2022-12-09T04:10:25.671Z,93.98
2022-12-09T04:14:28.418Z,93.68
2022-12-09T04:18:29.920Z,92.76
2022-12-09T04:22:31.332Z,92.89
2022-12-09T04:26:32.967Z,91.46
2022-12-09T04:30:36.070Z,92.56
2022-12-09T04:34:37.771Z,93.20
2022-12-09T04:38:39.753Z,92.85
2022-12-09T04:42:41.218Z,93.61
2022-12-09T04:46:44.309Z,93.80
2022-12-09T04:50:52.041Z,93.99
2022-12-09T04:54:53.389Z,94.16
2022-12-09T04:58:54.913Z,93.71
2022-12-09T05:02:58.088Z,94.20
2022-12-09T05:06:59.651Z,93.76
2022-12-09T05:11:01.540Z,93.64
2022-12-09T05:15:04.005Z,93.12
2022-12-09T05:19:07.096Z,93.35
2022-12-09T05:23:09.776Z,93.61
2022-12-09T05:27:11.531Z,93.72
2022-12-09T05:31:15.336Z,92.87
2022-12-09T05:35:18.240Z,93.02
2022-12-09T05:39:19.882Z,92.69
2022-12-09T05:43:21.696Z,92.12
2022-12-09T05:47:23.475Z,92.70
2022-12-09T05:51:27.878Z,93.29
2022-12-09T05:55:29.832Z,93.10
2022-12-09T05:59:31.720Z,93.16
2022-12-09T06:03:33.964Z,93.07
2022-12-09T06:07:36.929Z,93.19
2022-12-09T06:11:39.501Z,93.47
2022-12-09T06:15:41.059Z,92.45
2022-12-09T06:19:42.594Z,92.79
2022-12-09T06:23:46.233Z,92.69
2022-12-09T06:27:48.037Z,92.16
2022-12-09T06:31:49.518Z,92.52
2022-12-09T06:35:51.421Z,92.69
2022-12-09T06:39:54.448Z,92.84
2022-12-09T06:43:56.586Z,92.84
2022-12-09T06:47:58.106Z,92.68
2022-12-09T06:51:59.970Z,92.79
2022-12-09T06:56:09.575Z,93.14
2022-12-09T07:00:14.156Z,93.08
2022-12-09T07:04:15.808Z,93.04
2022-12-09T07:08:17.478Z,93.54
2022-12-09T07:12:20.724Z,92.84
2022-12-09T07:16:22.137Z,92.77
2022-12-09T07:20:24.492Z,91.87
2022-12-09T07:24:26.150Z,91.67
2022-12-09T07:28:29.247Z,91.89
2022-12-09T07:32:30.785Z,92.60
2022-12-09T07:36:33.690Z,92.41
2022-12-09T07:40:35.312Z,92.27
2022-12-09T07:44:38.303Z,91.24
2022-12-09T07:48:40.164Z,91.04
2022-12-09T07:52:42.207Z,90.40
2022-12-09T07:56:44.278Z,89.03
2022-12-09T08:00:47.104Z,87.96
2022-12-09T08:04:48.653Z,86.25
2022-12-09T08:08:50.618Z,86.93
2022-12-09T08:12:52.458Z,87.29
2022-12-09T08:16:55.586Z,85.64
2022-12-09T08:20:57.448Z,84.21
2022-12-09T08:24:59.577Z,82.25
2022-12-09T08:29:01.327Z,81.21
2022-12-09T08:33:04.952Z,80.35
2022-12-09T08:37:06.806Z,77.68
2022-12-09T08:41:09.231Z,78.14
2022-12-09T08:45:10.809Z,76.12
2022-12-09T08:49:14.423Z,76.69
2022-12-09T08:53:16.061Z,76.74
2022-12-09T08:57:21.566Z,74.83
2022-12-09T09:01:23.707Z,75.20
2022-12-09T09:05:27.162Z,75.58
2022-12-09T09:09:29.097Z,75.24
2022-12-09T09:13:30.725Z,74.09
2022-12-09T09:17:32.453Z,74.66
2022-12-09T09:21:35.914Z,74.44
2022-12-09T09:25:40.782Z,73.50
2022-12-09T09:29:42.559Z,72.75
2022-12-09T09:33:44.757Z,72.72
2022-12-09T09:37:48.308Z,72.65
2022-12-09T09:41:51.102Z,71.49
2022-12-09T09:45:54.599Z,71.80
2022-12-09T09:49:58.845Z,72.32
2022-12-09T09:54:08.142Z,72.23
2022-12-09T09:58:14.404Z,72.73
2022-12-09T10:02:18.094Z,71.57
2022-12-09T10:06:26.522Z,72.08
2022-12-09T10:10:36.714Z,72.39
2022-12-09T10:14:43.749Z,71.33
2022-12-09T10:18:55.253Z,71.39
2022-12-09T10:23:00.062Z,72.38
2022-12-09T10:27:06.245Z,72.74
2022-12-09T10:31:10.297Z,71.72
2022-12-09T10:35:14.595Z,71.96
2022-12-09T10:39:18.981Z,70.28
2022-12-09T10:43:23.491Z,71.26
2022-12-09T10:47:27.150Z,71.07
2022-12-09T10:51:30.154Z,71.53
2022-12-09T10:55:34.956Z,72.09
2022-12-09T10:59:38.810Z,69.96
2022-12-09T11:03:41.658Z,71.04
2022-12-09T11:07:47.381Z,70.86
2022-12-09T11:11:49.811Z,70.57
2022-12-09T11:15:53.774Z,70.17
2022-12-09T11:20:08.333Z,68.90
2022-12-09T11:24:19.674Z,71.13
2022-12-09T11:28:25.560Z,69.77
2022-12-09T11:32:29.278Z,70.49
2022-12-09T11:36:32.649Z,70.38
2022-12-09T11:40:35.581Z,70.11
2022-12-09T11:44:37.068Z,71.17
2022-12-09T11:48:43.781Z,72.05
2022-12-09T11:52:45.755Z,68.83
2022-12-09T11:56:48.893Z,69.98
2022-12-09T12:00:52.188Z,69.86
2022-12-09T12:04:58.287Z,67.27
2022-12-09T12:09:02.270Z,65.65
2022-12-09T12:13:09.505Z,67.97
2022-12-09T12:17:18.600Z,65.60
2022-12-09T12:21:27.859Z,68.35
2022-12-09T12:25:38.862Z,67.58
2022-12-09T12:29:46.572Z,68.30
2022-12-09T12:38:22.743Z,68.96
2022-12-09T12:42:30.685Z,67.36
2022-12-09T12:46:41.706Z,68.46
2022-12-09T12:50:56.169Z,69.99
2022-12-09T12:55:02.718Z,69.78
2022-12-09T12:59:10.740Z,70.09
2022-12-09T13:03:19.718Z,70.45
2022-12-09T13:07:24.207Z,70.56
2022-12-09T13:11:32.905Z,70.88
2022-12-09T13:15:37.621Z,71.70
2022-12-09T13:19:41.405Z,72.46
2022-12-09T13:24:09.960Z,69.16
2022-12-09T13:28:15.578Z,71.02
2022-12-09T13:32:22.991Z,71.20
2022-12-09T13:36:36.104Z,71.15
2022-12-09T13:40:38.403Z,72.05
2022-12-09T13:44:41.170Z,72.60
2022-12-09T13:48:43.569Z,72.54
2022-12-09T13:52:48.229Z,72.34
2022-12-09T13:57:04.110Z,72.58
2022-12-09T14:01:13.703Z,73.71
2022-12-09T14:05:18.865Z,72.15
2022-12-09T14:09:27.079Z,72.59
2022-12-09T14:13:29.370Z,72.50
2022-12-09T14:17:57.680Z,72.58
2022-12-09T14:22:17.463Z,74.55
2022-12-09T14:26:33.855Z,73.94
2022-12-09T14:30:50.393Z,73.67
2022-12-09T14:35:03.678Z,74.48
2022-12-09T14:39:29.857Z,74.53
2022-12-09T14:43:38.234Z,75.20
2022-12-09T14:47:43.369Z,74.73
2022-12-09T14:51:46.818Z,75.62
2022-12-09T14:55:48.925Z,75.99
2022-12-09T14:59:51.663Z,76.95
2022-12-09T15:03:55.822Z,76.86
2022-12-09T15:07:57.399Z,76.49
2022-12-09T15:11:58.830Z,77.56
2022-12-09T15:16:00.608Z,77.45
2022-12-09T15:20:04.139Z,77.60
2022-12-09T15:24:05.745Z,75.98
2022-12-09T15:28:13.204Z,76.63
2022-12-09T15:32:18.784Z,77.48
2022-12-09T15:36:24.214Z,77.34
2022-12-09T15:40:26.192Z,76.56
2022-12-09T15:44:31.098Z,76.93
2022-12-09T15:48:34.406Z,77.77
2022-12-09T15:52:39.283Z,78.33
2022-12-09T15:56:43.772Z,79.24
2022-12-09T16:00:46.549Z,79.97
2022-12-09T16:04:48.867Z,81.27
2022-12-09T16:08:51.622Z,81.64
2022-12-09T16:13:06.877Z,81.80
2022-12-09T16:17:19.505Z,82.57
2022-12-09T16:21:23.551Z,83.50
2022-12-09T16:25:27.526Z,83.93
2022-12-09T16:29:30.949Z,83.85
2022-12-09T16:33:34.392Z,84.11
2022-12-09T16:37:37.091Z,84.39
2022-12-09T16:41:53.352Z,85.02
2022-12-09T16:45:57.096Z,84.69
2022-12-09T16:49:58.512Z,85.02
2022-12-09T16:54:00.152Z,83.75
2022-12-09T16:58:01.553Z,82.88
2022-12-09T17:02:04.288Z,84.35
2022-12-09T17:06:05.917Z,84.87
2022-12-09T17:10:07.599Z,84.73
2022-12-09T17:14:08.950Z,85.07
2022-12-09T17:18:11.659Z,85.18
2022-12-09T17:22:13.032Z,85.42
2022-12-09T17:26:16.017Z,85.36
2022-12-09T17:30:17.377Z,84.86
2022-12-09T17:34:20.176Z,85.56
2022-12-09T17:38:21.952Z,85.74
2022-12-09T17:42:23.286Z,86.15
2022-12-09T17:46:24.792Z,86.67
2022-12-09T17:50:27.625Z,86.70
2022-12-09T17:54:29.005Z,87.21
2022-12-09T17:58:30.344Z,86.88
2022-12-09T18:02:31.766Z,85.30
2022-12-09T18:06:35.219Z,85.41
2022-12-09T18:10:36.699Z,86.83
2022-12-09T18:14:38.042Z,87.88
2022-12-09T18:18:39.820Z,88.10
2022-12-09T18:22:42.599Z,88.00
2022-12-09T18:26:44.004Z,88.08
2022-12-09T18:30:45.457Z,88.37
2022-12-09T18:34:46.963Z,88.44
2022-12-09T18:38:49.709Z,87.85
2022-12-09T18:42:51.380Z,87.89
2022-12-09T18:46:52.772Z,87.80
2022-12-09T18:50:54.221Z,88.26
2022-12-09T18:54:56.973Z,87.65
2022-12-09T18:59:06.455Z,87.58
2022-12-09T19:03:08.685Z,87.29
2022-12-09T19:07:12.170Z,87.67
2022-12-09T19:11:14.892Z,87.94
2022-12-09T19:15:16.253Z,88.20
2022-12-09T19:19:18.415Z,87.65
2022-12-09T19:23:19.796Z,88.26
2022-12-09T19:27:22.553Z,88.05
2022-12-09T19:31:25.098Z,87.27
2022-12-09T19:35:26.545Z,87.65
2022-12-09T19:39:28.692Z,88.21
2022-12-09T19:43:31.450Z,88.35
2022-12-09T19:47:32.789Z,87.86
2022-12-09T19:51:34.132Z,88.78
2022-12-09T19:55:35.584Z,88.50
2022-12-09T19:59:38.113Z,88.26
2022-12-09T20:03:41.497Z,88.74
2022-12-09T20:07:42.915Z,87.28
2022-12-09T20:11:44.387Z,87.94
2022-12-09T20:15:45.730Z,88.01
2022-12-09T20:19:48.429Z,88.31
2022-12-09T20:23:50.380Z,88.89
2022-12-09T20:27:51.737Z,88.69
2022-12-09T20:31:53.239Z,88.72
2022-12-09T20:35:56.057Z,88.81
2022-12-09T20:39:57.429Z,89.17
2022-12-09T20:43:59.741Z,89.03
2022-12-09T20:48:01.115Z,88.93
2022-12-09T20:52:03.884Z,89.45
2022-12-09T20:56:05.589Z,89.41
2022-12-09T21:00:07.899Z,89.34
2022-12-09T21:04:09.464Z,88.72
2022-12-09T21:08:12.377Z,88.96
2022-12-09T21:12:13.820Z,89.45
2022-12-09T21:16:16.049Z,89.47
2022-12-09T21:20:17.613Z,90.01
2022-12-09T21:24:20.335Z,89.47
2022-12-09T21:28:21.854Z,89.31
2022-12-09T21:32:23.216Z,88.06
2022-12-09T21:36:25.211Z,89.18
2022-12-09T21:40:27.939Z,89.21
2022-12-09T21:44:29.275Z,88.41
2022-12-09T21:48:30.906Z,89.35
2022-12-09T21:52:32.269Z,89.17
2022-12-09T21:56:35.024Z,89.11
2022-12-09T22:00:37.372Z,89.29
2022-12-09T22:04:38.754Z,90.19
2022-12-09T22:08:40.426Z,89.93
2022-12-09T22:12:43.130Z,90.40
2022-12-09T22:16:44.994Z,90.22
2022-12-09T22:21:24.264Z,89.71
2022-12-09T22:25:08.449Z,88.36
2022-12-09T22:29:12.158Z,88.64
2022-12-09T22:33:13.528Z,88.68
2022-12-09T22:37:42.008Z,88.98
2022-12-09T22:41:36.193Z,88.66
2022-12-09T22:45:38.908Z,88.05
2022-12-09T22:49:40.208Z,88.50
2022-12-09T22:53:41.697Z,88.55
2022-12-09T22:57:43.007Z,88.95
2022-12-09T23:01:47.656Z,88.52
2022-12-09T23:05:49.100Z,88.82
2022-12-09T23:09:50.412Z,88.43
2022-12-09T23:13:52.133Z,88.69
2022-12-09T23:17:54.800Z,88.05
2022-12-09T23:21:56.140Z,88.80
2022-12-09T23:26:01.177Z,87.98
2022-12-09T23:30:02.636Z,87.60
2022-12-09T23:34:06.113Z,88.14
2022-12-09T23:38:07.432Z,88.06
2022-12-09T23:42:08.818Z,87.98
2022-12-09T23:46:15.850Z,87.67
2022-12-09T23:50:18.933Z,87.74
2022-12-09T23:54:20.258Z,87.50
2022-12-09T23:58:21.583Z,87.20
